sensor_id;sensor_type;location;lat;lon;timestamp;pressure;altitude;pressure_sealevel;temperature;humidity
53916;BME280;39827;49.652;18.770;2023-02-10T00:00:44;98118.88;;;-3.34;65.52
53916;BME280;39827;49.652;18.770;2023-02-10T00:03:09;98121.94;;;-3.29;65.65
53916;BME280;39827;49.652;18.770;2023-02-10T00:05:35;98137.59;;;-3.31;65.78
53916;BME280;39827;49.652;18.770;2023-02-10T00:08:00;98126.47;;;-3.43;65.83
53916;BME280;39827;49.652;18.770;2023-02-10T00:10:26;98126.03;;;-3.48;66.00
53916;BME280;39827;49.652;18.770;2023-02-10T00:12:51;98125.97;;;-3.36;65.91
53916;BME280;39827;49.652;18.770;2023-02-10T00:15:16;98117.84;;;-3.53;66.47
53916;BME280;39827;49.652;18.770;2023-02-10T00:17:42;98111.22;;;-3.46;66.76
53916;BME280;39827;49.652;18.770;2023-02-10T00:20:08;98095.38;;;-3.53;66.88
53916;BME280;39827;49.652;18.770;2023-02-10T00:22:33;98124.16;;;-3.46;66.92
53916;BME280;39827;49.652;18.770;2023-02-10T00:24:59;98109.81;;;-3.50;67.11
53916;BME280;39827;49.652;18.770;2023-02-10T00:27:25;98125.22;;;-3.70;67.38
53916;BME280;39827;49.652;18.770;2023-02-10T00:29:50;98138.75;;;-3.45;66.68
53916;BME280;39827;49.652;18.770;2023-02-10T00:32:16;98112.00;;;-3.45;66.47
53916;BME280;39827;49.652;18.770;2023-02-10T00:34:43;98118.47;;;-3.40;66.48
53916;BME280;39827;49.652;18.770;2023-02-10T00:37:09;98146.00;;;-3.38;66.51
53916;BME280;39827;49.652;18.770;2023-02-10T00:39:34;98126.22;;;-3.40;67.32
53916;BME280;39827;49.652;18.770;2023-02-10T00:42:00;98125.44;;;-3.40;66.79
53916;BME280;39827;49.652;18.770;2023-02-10T00:44:25;98139.31;;;-3.41;66.92
53916;BME280;39827;49.652;18.770;2023-02-10T00:46:50;98150.41;;;-3.50;67.11
53916;BME280;39827;49.652;18.770;2023-02-10T00:49:16;98120.19;;;-3.50;66.85
53916;BME280;39827;49.652;18.770;2023-02-10T00:51:41;98137.28;;;-3.37;67.21
53916;BME280;39827;49.652;18.770;2023-02-10T00:54:08;98141.22;;;-3.43;66.85
53916;BME280;39827;49.652;18.770;2023-02-10T00:56:33;98135.72;;;-3.50;67.33
53916;BME280;39827;49.652;18.770;2023-02-10T00:58:59;98130.03;;;-3.44;66.87
53916;BME280;39827;49.652;18.770;2023-02-10T01:01:26;98126.69;;;-3.56;66.92
53916;BME280;39827;49.652;18.770;2023-02-10T01:03:52;98113.84;;;-3.57;68.29
53916;BME280;39827;49.652;18.770;2023-02-10T01:06:18;98117.06;;;-3.44;67.16
53916;BME280;39827;49.652;18.770;2023-02-10T01:08:43;98106.53;;;-3.52;67.57
53916;BME280;39827;49.652;18.770;2023-02-10T01:11:11;98121.28;;;-3.43;67.00
53916;BME280;39827;49.652;18.770;2023-02-10T01:13:37;98106.22;;;-3.59;67.05
53916;BME280;39827;49.652;18.770;2023-02-10T01:16:08;98092.59;;;-3.61;67.74
53916;BME280;39827;49.652;18.770;2023-02-10T01:18:40;98113.97;;;-3.59;67.92
53916;BME280;39827;49.652;18.770;2023-02-10T01:21:14;98088.97;;;-3.70;67.90
53916;BME280;39827;49.652;18.770;2023-02-10T01:23:39;98088.22;;;-3.60;67.45
53916;BME280;39827;49.652;18.770;2023-02-10T01:26:05;98079.75;;;-3.62;67.35
53916;BME280;39827;49.652;18.770;2023-02-10T01:28:31;98068.00;;;-3.67;68.49
53916;BME280;39827;49.652;18.770;2023-02-10T01:30:56;98072.88;;;-3.73;68.27
53916;BME280;39827;49.652;18.770;2023-02-10T01:33:22;98050.91;;;-3.79;68.74
53916;BME280;39827;49.652;18.770;2023-02-10T01:35:48;98056.78;;;-3.77;68.51
53916;BME280;39827;49.652;18.770;2023-02-10T01:38:13;98068.25;;;-3.70;67.33
53916;BME280;39827;49.652;18.770;2023-02-10T01:40:39;98036.28;;;-3.69;67.62
53916;BME280;39827;49.652;18.770;2023-02-10T01:43:15;98012.50;;;-3.74;67.15
53916;BME280;39827;49.652;18.770;2023-02-10T01:45:41;98037.72;;;-3.76;66.93
53916;BME280;39827;49.652;18.770;2023-02-10T01:48:08;98030.16;;;-3.68;66.77
53916;BME280;39827;49.652;18.770;2023-02-10T01:50:42;98039.59;;;-3.57;66.76
53916;BME280;39827;49.652;18.770;2023-02-10T01:53:10;98029.44;;;-3.70;66.80
53916;BME280;39827;49.652;18.770;2023-02-10T01:55:39;98025.41;;;-3.62;65.90
53916;BME280;39827;49.652;18.770;2023-02-10T01:58:08;98031.97;;;-3.58;66.50
53916;BME280;39827;49.652;18.770;2023-02-10T02:00:35;98049.56;;;-3.52;66.70
53916;BME280;39827;49.652;18.770;2023-02-10T02:03:02;98054.44;;;-3.59;66.15
53916;BME280;39827;49.652;18.770;2023-02-10T02:05:38;98032.13;;;-3.50;66.08
53916;BME280;39827;49.652;18.770;2023-02-10T02:13:26;98039.78;;;-3.70;67.11
53916;BME280;39827;49.652;18.770;2023-02-10T02:16:02;98071.22;;;-3.53;66.32
53916;BME280;39827;49.652;18.770;2023-02-10T02:18:47;98039.72;;;-3.58;66.04
53916;BME280;39827;49.652;18.770;2023-02-10T02:21:31;98055.19;;;-3.68;66.63
53916;BME280;39827;49.652;18.770;2023-02-10T02:32:39;98031.53;;;-3.63;67.12
53916;BME280;39827;49.652;18.770;2023-02-10T02:35:15;98047.56;;;-3.70;66.94
53916;BME280;39827;49.652;18.770;2023-02-10T02:37:43;98035.00;;;-3.74;66.99
53916;BME280;39827;49.652;18.770;2023-02-10T02:40:12;98051.53;;;-3.66;67.62
53916;BME280;39827;49.652;18.770;2023-02-10T02:42:39;98054.41;;;-3.69;67.24
53916;BME280;39827;49.652;18.770;2023-02-10T02:45:12;98054.44;;;-3.80;68.20
53916;BME280;39827;49.652;18.770;2023-02-10T02:48:06;98040.94;;;-3.84;67.98
53916;BME280;39827;49.652;18.770;2023-02-10T02:50:55;98039.09;;;-3.72;67.37
53916;BME280;39827;49.652;18.770;2023-02-10T02:53:51;98044.78;;;-3.78;68.17
53916;BME280;39827;49.652;18.770;2023-02-10T02:56:32;98022.44;;;-3.79;67.63
53916;BME280;39827;49.652;18.770;2023-02-10T03:01:45;98035.25;;;-3.77;67.79
53916;BME280;39827;49.652;18.770;2023-02-10T03:04:13;98039.25;;;-3.95;67.91
53916;BME280;39827;49.652;18.770;2023-02-10T03:06:40;98031.28;;;-4.03;68.79
53916;BME280;39827;49.652;18.770;2023-02-10T03:09:06;98052.81;;;-3.81;68.70
53916;BME280;39827;49.652;18.770;2023-02-10T03:11:31;98046.53;;;-4.00;69.16
53916;BME280;39827;49.652;18.770;2023-02-10T03:13:56;98052.88;;;-3.93;68.76
53916;BME280;39827;49.652;18.770;2023-02-10T03:16:22;98048.66;;;-3.94;68.91
53916;BME280;39827;49.652;18.770;2023-02-10T03:18:47;98042.19;;;-3.99;69.02
53916;BME280;39827;49.652;18.770;2023-02-10T03:21:13;98049.13;;;-4.00;68.98
53916;BME280;39827;49.652;18.770;2023-02-10T03:23:38;98058.47;;;-4.09;68.70
53916;BME280;39827;49.652;18.770;2023-02-10T03:26:04;98045.16;;;-4.04;68.51
53916;BME280;39827;49.652;18.770;2023-02-10T03:28:30;98043.84;;;-3.98;68.51
53916;BME280;39827;49.652;18.770;2023-02-10T03:30:55;98046.69;;;-4.01;68.97
53916;BME280;39827;49.652;18.770;2023-02-10T03:33:21;98064.28;;;-3.95;69.44
53916;BME280;39827;49.652;18.770;2023-02-10T03:35:47;98066.75;;;-3.94;68.40
53916;BME280;39827;49.652;18.770;2023-02-10T03:38:14;98057.03;;;-3.80;68.62
53916;BME280;39827;49.652;18.770;2023-02-10T03:40:39;98056.44;;;-4.05;69.76
53916;BME280;39827;49.652;18.770;2023-02-10T03:43:05;98066.03;;;-3.96;69.83
53916;BME280;39827;49.652;18.770;2023-02-10T03:45:31;98048.19;;;-3.99;69.15
53916;BME280;39827;49.652;18.770;2023-02-10T03:47:56;98059.44;;;-4.10;69.71
53916;BME280;39827;49.652;18.770;2023-02-10T03:50:24;98056.69;;;-4.08;69.80
53916;BME280;39827;49.652;18.770;2023-02-10T03:52:50;98052.00;;;-4.03;69.21
53916;BME280;39827;49.652;18.770;2023-02-10T03:55:15;98032.38;;;-4.06;69.17
53916;BME280;39827;49.652;18.770;2023-02-10T03:57:43;98032.94;;;-4.02;69.87
53916;BME280;39827;49.652;18.770;2023-02-10T04:00:09;98024.31;;;-4.02;69.26
53916;BME280;39827;49.652;18.770;2023-02-10T04:02:35;98029.94;;;-3.97;68.80
53916;BME280;39827;49.652;18.770;2023-02-10T04:05:00;98026.78;;;-4.01;68.56
53916;BME280;39827;49.652;18.770;2023-02-10T04:07:26;98025.72;;;-3.98;68.55
53916;BME280;39827;49.652;18.770;2023-02-10T04:09:51;98033.25;;;-3.95;68.60
53916;BME280;39827;49.652;18.770;2023-02-10T04:12:16;98055.06;;;-4.09;68.12
53916;BME280;39827;49.652;18.770;2023-02-10T04:14:42;98027.19;;;-4.06;68.32
53916;BME280;39827;49.652;18.770;2023-02-10T04:17:07;98031.09;;;-3.90;67.54
53916;BME280;39827;49.652;18.770;2023-02-10T04:19:32;98033.81;;;-3.92;67.62
53916;BME280;39827;49.652;18.770;2023-02-10T04:21:58;98044.53;;;-3.96;68.27
53916;BME280;39827;49.652;18.770;2023-02-10T04:24:23;98058.56;;;-3.99;68.38
53916;BME280;39827;49.652;18.770;2023-02-10T04:26:49;98039.25;;;-3.95;67.93
53916;BME280;39827;49.652;18.770;2023-02-10T04:29:14;98035.31;;;-4.10;68.54
53916;BME280;39827;49.652;18.770;2023-02-10T04:31:40;98047.06;;;-4.06;68.43
53916;BME280;39827;49.652;18.770;2023-02-10T04:34:05;98039.81;;;-3.91;68.73
53916;BME280;39827;49.652;18.770;2023-02-10T04:36:31;98046.50;;;-4.10;68.59
53916;BME280;39827;49.652;18.770;2023-02-10T04:38:56;98049.69;;;-4.18;69.44
53916;BME280;39827;49.652;18.770;2023-02-10T04:41:21;98051.78;;;-4.11;69.08
53916;BME280;39827;49.652;18.770;2023-02-10T04:43:47;98040.50;;;-4.10;69.25
53916;BME280;39827;49.652;18.770;2023-02-10T04:46:13;98053.94;;;-4.16;68.58
53916;BME280;39827;49.652;18.770;2023-02-10T04:48:38;98036.50;;;-4.14;69.39
53916;BME280;39827;49.652;18.770;2023-02-10T04:51:08;98071.72;;;-4.02;68.79
53916;BME280;39827;49.652;18.770;2023-02-10T04:53:35;98049.25;;;-4.23;69.04
53916;BME280;39827;49.652;18.770;2023-02-10T04:56:00;98046.88;;;-4.26;69.99
53916;BME280;39827;49.652;18.770;2023-02-10T04:58:26;98060.50;;;-4.12;69.60
53916;BME280;39827;49.652;18.770;2023-02-10T05:00:54;98070.84;;;-4.12;70.21
53916;BME280;39827;49.652;18.770;2023-02-10T05:03:20;98063.81;;;-4.22;69.86
53916;BME280;39827;49.652;18.770;2023-02-10T05:05:45;98065.72;;;-4.24;70.14
53916;BME280;39827;49.652;18.770;2023-02-10T05:08:11;98065.00;;;-4.26;70.41
53916;BME280;39827;49.652;18.770;2023-02-10T05:10:36;98063.31;;;-4.15;69.42
53916;BME280;39827;49.652;18.770;2023-02-10T05:13:01;98062.38;;;-4.14;69.78
53916;BME280;39827;49.652;18.770;2023-02-10T05:15:27;98068.28;;;-4.24;69.33
53916;BME280;39827;49.652;18.770;2023-02-10T05:17:52;98082.72;;;-4.10;69.75
53916;BME280;39827;49.652;18.770;2023-02-10T05:20:18;98075.81;;;-4.21;70.78
53916;BME280;39827;49.652;18.770;2023-02-10T05:22:43;98080.06;;;-4.31;70.74
53916;BME280;39827;49.652;18.770;2023-02-10T05:25:09;98069.25;;;-4.25;70.02
53916;BME280;39827;49.652;18.770;2023-02-10T05:27:35;98082.19;;;-4.25;69.98
53916;BME280;39827;49.652;18.770;2023-02-10T05:30:01;98074.44;;;-4.36;71.19
53916;BME280;39827;49.652;18.770;2023-02-10T05:32:26;98079.25;;;-4.32;70.45
53916;BME280;39827;49.652;18.770;2023-02-10T05:34:51;98084.56;;;-4.33;70.56
53916;BME280;39827;49.652;18.770;2023-02-10T05:37:17;98077.97;;;-4.37;70.83
53916;BME280;39827;49.652;18.770;2023-02-10T05:39:42;98089.28;;;-4.38;70.89
53916;BME280;39827;49.652;18.770;2023-02-10T05:42:08;98101.03;;;-4.34;71.40
53916;BME280;39827;49.652;18.770;2023-02-10T05:44:33;98100.53;;;-4.39;70.78
53916;BME280;39827;49.652;18.770;2023-02-10T05:46:59;98112.66;;;-4.40;70.88
53916;BME280;39827;49.652;18.770;2023-02-10T05:49:24;98120.31;;;-4.38;71.20
53916;BME280;39827;49.652;18.770;2023-02-10T05:51:50;98110.53;;;-4.46;71.45
53916;BME280;39827;49.652;18.770;2023-02-10T05:54:16;98125.38;;;-4.48;71.63
53916;BME280;39827;49.652;18.770;2023-02-10T05:56:41;98109.25;;;-4.52;72.04
53916;BME280;39827;49.652;18.770;2023-02-10T05:59:07;98119.38;;;-4.49;71.69
53916;BME280;39827;49.652;18.770;2023-02-10T06:01:32;98098.38;;;-4.78;72.67
53916;BME280;39827;49.652;18.770;2023-02-10T06:03:58;98107.78;;;-4.66;71.88
53916;BME280;39827;49.652;18.770;2023-02-10T06:06:23;98101.88;;;-4.56;71.55
53916;BME280;39827;49.652;18.770;2023-02-10T06:08:49;98113.16;;;-4.58;71.74
53916;BME280;39827;49.652;18.770;2023-02-10T06:11:14;98135.47;;;-4.45;71.63
53916;BME280;39827;49.652;18.770;2023-02-10T06:13:40;98128.53;;;-4.45;71.64
53916;BME280;39827;49.652;18.770;2023-02-10T06:16:07;98131.50;;;-4.61;72.16
53916;BME280;39827;49.652;18.770;2023-02-10T06:18:33;98129.63;;;-4.81;73.19
53916;BME280;39827;49.652;18.770;2023-02-10T06:20:58;98150.88;;;-4.55;72.46
53916;BME280;39827;49.652;18.770;2023-02-10T06:23:24;98141.72;;;-4.71;72.89
53916;BME280;39827;49.652;18.770;2023-02-10T06:25:50;98152.53;;;-4.77;72.65
53916;BME280;39827;49.652;18.770;2023-02-10T06:28:23;98149.94;;;-4.54;72.30
53916;BME280;39827;49.652;18.770;2023-02-10T06:30:49;98142.50;;;-4.47;71.78
53916;BME280;39827;49.652;18.770;2023-02-10T06:33:14;98141.25;;;-4.64;72.39
53916;BME280;39827;49.652;18.770;2023-02-10T06:35:40;98143.84;;;-4.64;72.33
53916;BME280;39827;49.652;18.770;2023-02-10T06:38:05;98147.84;;;-4.94;73.86
53916;BME280;39827;49.652;18.770;2023-02-10T06:40:31;98150.19;;;-4.68;73.47
53916;BME280;39827;49.652;18.770;2023-02-10T06:42:56;98156.16;;;-4.56;72.64
53916;BME280;39827;49.652;18.770;2023-02-10T06:45:22;98138.19;;;-4.47;72.19
53916;BME280;39827;49.652;18.770;2023-02-10T06:47:47;98135.47;;;-4.45;71.63
53916;BME280;39827;49.652;18.770;2023-02-10T06:50:13;98143.25;;;-4.56;71.89
53916;BME280;39827;49.652;18.770;2023-02-10T06:52:38;98152.50;;;-4.54;71.83
53916;BME280;39827;49.652;18.770;2023-02-10T06:55:07;98153.91;;;-4.50;72.32
53916;BME280;39827;49.652;18.770;2023-02-10T06:57:33;98148.75;;;-4.38;71.77
53916;BME280;39827;49.652;18.770;2023-02-10T07:00:04;98151.56;;;-4.41;71.99
53916;BME280;39827;49.652;18.770;2023-02-10T07:02:30;98152.41;;;-4.52;72.16
53916;BME280;39827;49.652;18.770;2023-02-10T07:04:56;98146.63;;;-4.45;71.61
53916;BME280;39827;49.652;18.770;2023-02-10T07:07:21;98140.72;;;-4.35;71.82
53916;BME280;39827;49.652;18.770;2023-02-10T07:09:46;98160.13;;;-4.29;71.11
53916;BME280;39827;49.652;18.770;2023-02-10T07:12:12;98160.38;;;-4.00;69.80
53916;BME280;39827;49.652;18.770;2023-02-10T07:14:37;98159.94;;;-4.05;69.99
53916;BME280;39827;49.652;18.770;2023-02-10T07:17:03;98165.00;;;-4.15;70.33
53916;BME280;39827;49.652;18.770;2023-02-10T07:19:29;98162.97;;;-4.00;70.24
53916;BME280;39827;49.652;18.770;2023-02-10T07:21:56;98153.34;;;-3.98;69.55
53916;BME280;39827;49.652;18.770;2023-02-10T07:24:21;98152.84;;;-3.92;68.99
53916;BME280;39827;49.652;18.770;2023-02-10T07:26:47;98165.88;;;-3.60;68.30
53916;BME280;39827;49.652;18.770;2023-02-10T07:29:12;98155.66;;;-3.62;68.17
53916;BME280;39827;49.652;18.770;2023-02-10T07:31:37;98154.47;;;-3.58;67.85
53916;BME280;39827;49.652;18.770;2023-02-10T07:34:03;98154.78;;;-3.30;67.17
53916;BME280;39827;49.652;18.770;2023-02-10T07:36:29;98156.06;;;-3.24;66.24
53916;BME280;39827;49.652;18.770;2023-02-10T07:38:54;98156.41;;;-3.07;65.74
53916;BME280;39827;49.652;18.770;2023-02-10T07:41:20;98157.47;;;-3.10;65.54
53916;BME280;39827;49.652;18.770;2023-02-10T07:43:45;98170.63;;;-2.70;64.28
53916;BME280;39827;49.652;18.770;2023-02-10T07:46:11;98166.53;;;-1.13;59.40
53916;BME280;39827;49.652;18.770;2023-02-10T07:48:36;98181.16;;;0.64;53.45
53916;BME280;39827;49.652;18.770;2023-02-10T07:51:02;98183.78;;;1.95;50.38
53916;BME280;39827;49.652;18.770;2023-02-10T07:53:27;98192.03;;;3.57;46.82
53916;BME280;39827;49.652;18.770;2023-02-10T07:55:53;98201.84;;;4.50;42.75
53916;BME280;39827;49.652;18.770;2023-02-10T07:58:18;98193.31;;;4.72;40.59
53916;BME280;39827;49.652;18.770;2023-02-10T08:00:43;98187.19;;;4.94;40.29
53916;BME280;39827;49.652;18.770;2023-02-10T08:03:13;98195.53;;;4.98;40.44
53916;BME280;39827;49.652;18.770;2023-02-10T08:05:38;98193.41;;;5.47;39.07
53916;BME280;39827;49.652;18.770;2023-02-10T08:08:04;98197.75;;;6.65;37.23
53916;BME280;39827;49.652;18.770;2023-02-10T08:10:30;98192.53;;;6.07;36.71
53916;BME280;39827;49.652;18.770;2023-02-10T08:12:55;98188.13;;;5.62;38.09
53916;BME280;39827;49.652;18.770;2023-02-10T08:15:20;98193.63;;;6.34;36.29
53916;BME280;39827;49.652;18.770;2023-02-10T08:17:47;98188.75;;;6.82;35.62
53916;BME280;39827;49.652;18.770;2023-02-10T08:20:13;98205.19;;;6.84;35.60
53916;BME280;39827;49.652;18.770;2023-02-10T08:22:38;98203.59;;;7.89;34.12
53916;BME280;39827;49.652;18.770;2023-02-10T08:25:04;98206.75;;;8.33;33.02
53916;BME280;39827;49.652;18.770;2023-02-10T08:27:30;98189.56;;;7.88;33.60
53916;BME280;39827;49.652;18.770;2023-02-10T08:29:55;98198.69;;;7.86;33.57
53916;BME280;39827;49.652;18.770;2023-02-10T08:32:22;98193.31;;;7.23;33.70
53916;BME280;39827;49.652;18.770;2023-02-10T08:34:48;98210.66;;;7.11;34.45
53916;BME280;39827;49.652;18.770;2023-02-10T08:37:15;98207.66;;;6.85;34.21
53916;BME280;39827;49.652;18.770;2023-02-10T08:39:40;98198.53;;;7.94;33.47
53916;BME280;39827;49.652;18.770;2023-02-10T08:42:06;98200.47;;;7.78;33.53
53916;BME280;39827;49.652;18.770;2023-02-10T08:44:32;98210.75;;;8.15;32.79
53916;BME280;39827;49.652;18.770;2023-02-10T08:46:57;98202.59;;;8.86;31.86
53916;BME280;39827;49.652;18.770;2023-02-10T08:49:23;98203.63;;;7.95;32.54
53916;BME280;39827;49.652;18.770;2023-02-10T08:51:53;98199.03;;;7.69;33.27
53916;BME280;39827;49.652;18.770;2023-02-10T08:54:19;98215.72;;;7.83;33.03
53916;BME280;39827;49.652;18.770;2023-02-10T08:56:46;98206.03;;;7.90;32.84
53916;BME280;39827;49.652;18.770;2023-02-10T08:59:11;98199.94;;;7.97;32.56
53916;BME280;39827;49.652;18.770;2023-02-10T09:01:37;98202.31;;;9.42;30.91
53916;BME280;39827;49.652;18.770;2023-02-10T09:04:03;98210.06;;;9.03;31.38
53916;BME280;39827;49.652;18.770;2023-02-10T09:06:31;98212.81;;;9.69;29.88
53916;BME280;39827;49.652;18.770;2023-02-10T09:08:58;98212.47;;;10.04;29.83
53916;BME280;39827;49.652;18.770;2023-02-10T09:11:25;98214.78;;;9.87;29.88
53916;BME280;39827;49.652;18.770;2023-02-10T09:13:52;98210.66;;;11.64;27.99
53916;BME280;39827;49.652;18.770;2023-02-10T09:16:18;98218.97;;;11.30;28.27
53916;BME280;39827;49.652;18.770;2023-02-10T09:18:43;98218.88;;;10.67;28.66
53916;BME280;39827;49.652;18.770;2023-02-10T09:21:09;98225.38;;;10.72;28.25
53916;BME280;39827;49.652;18.770;2023-02-10T09:23:35;98212.06;;;10.39;29.18
53916;BME280;39827;49.652;18.770;2023-02-10T09:26:01;98213.06;;;10.52;28.96
53916;BME280;39827;49.652;18.770;2023-02-10T09:28:27;98221.88;;;10.39;28.92
53916;BME280;39827;49.652;18.770;2023-02-10T09:30:53;98216.59;;;10.97;28.47
53916;BME280;39827;49.652;18.770;2023-02-10T09:33:18;98206.34;;;11.44;27.83
53916;BME280;39827;49.652;18.770;2023-02-10T09:35:44;98198.72;;;11.73;27.26
53916;BME280;39827;49.652;18.770;2023-02-10T09:38:11;98207.47;;;12.42;26.73
53916;BME280;39827;49.652;18.770;2023-02-10T09:40:52;98210.63;;;12.20;27.13
53916;BME280;39827;49.652;18.770;2023-02-10T09:54:40;98206.56;;;14.21;24.33
53916;BME280;39827;49.652;18.770;2023-02-10T09:57:13;98210.78;;;15.15;23.55
53916;BME280;39827;49.652;18.770;2023-02-10T09:59:41;98211.09;;;15.58;23.85
53916;BME280;39827;49.652;18.770;2023-02-10T10:02:18;98216.25;;;15.64;24.39
53916;BME280;39827;49.652;18.770;2023-02-10T10:04:44;98221.88;;;16.08;23.06
53916;BME280;39827;49.652;18.770;2023-02-10T10:07:17;98227.03;;;17.45;22.22
53916;BME280;39827;49.652;18.770;2023-02-10T10:09:54;98218.09;;;16.59;23.44
53916;BME280;39827;49.652;18.770;2023-02-10T10:12:22;98218.19;;;15.30;23.65
53916;BME280;39827;49.652;18.770;2023-02-10T10:14:47;98215.03;;;16.17;23.81
53916;BME280;39827;49.652;18.770;2023-02-10T10:20:20;98218.66;;;17.85;22.53
53916;BME280;39827;49.652;18.770;2023-02-10T10:22:55;98207.59;;;17.66;22.87
53916;BME280;39827;49.652;18.770;2023-02-10T10:33:43;98197.75;;;17.87;21.06
53916;BME280;39827;49.652;18.770;2023-02-10T10:36:14;98199.16;;;15.88;22.10
53916;BME280;39827;49.652;18.770;2023-02-10T10:38:46;98181.25;;;14.53;23.61
53916;BME280;39827;49.652;18.770;2023-02-10T10:41:14;98174.88;;;13.78;24.83
53916;BME280;39827;49.652;18.770;2023-02-10T10:43:48;98186.78;;;14.17;24.39
53916;BME280;39827;49.652;18.770;2023-02-10T10:46:35;98195.91;;;15.19;23.95
53916;BME280;39827;49.652;18.770;2023-02-10T10:49:03;98181.41;;;14.46;23.98
53916;BME280;39827;49.652;18.770;2023-02-10T10:51:30;98184.94;;;13.76;24.15
53916;BME280;39827;49.652;18.770;2023-02-10T10:53:57;98182.22;;;13.23;25.50
53916;BME280;39827;49.652;18.770;2023-02-10T10:59:16;98195.06;;;12.36;26.91
53916;BME280;39827;49.652;18.770;2023-02-10T11:01:45;98195.72;;;12.01;26.77
53916;BME280;39827;49.652;18.770;2023-02-10T11:04:18;98195.66;;;13.05;26.15
53916;BME280;39827;49.652;18.770;2023-02-10T11:06:48;98200.75;;;13.95;24.86
53916;BME280;39827;49.652;18.770;2023-02-10T11:09:30;98185.28;;;14.38;24.74
53916;BME280;39827;49.652;18.770;2023-02-10T11:12:15;98179.66;;;14.52;24.01
53916;BME280;39827;49.652;18.770;2023-02-10T11:14:46;98184.66;;;13.90;25.12
53916;BME280;39827;49.652;18.770;2023-02-10T11:17:36;98188.09;;;14.02;24.96
53916;BME280;39827;49.652;18.770;2023-02-10T11:22:39;98178.84;;;11.95;29.06
53916;BME280;39827;49.652;18.770;2023-02-10T11:27:55;98166.97;;;12.16;28.13
53916;BME280;39827;49.652;18.770;2023-02-10T11:32:54;98161.22;;;12.01;29.59
53916;BME280;39827;49.652;18.770;2023-02-10T11:35:20;98151.78;;;12.35;29.71
53916;BME280;39827;49.652;18.770;2023-02-10T11:38:25;98158.69;;;11.75;30.40
53916;BME280;39827;49.652;18.770;2023-02-10T11:43:15;98160.16;;;11.33;30.72
53916;BME280;39827;49.652;18.770;2023-02-10T11:45:52;98150.59;;;11.14;31.10
53916;BME280;39827;49.652;18.770;2023-02-10T11:48:20;98147.66;;;11.41;30.59
53916;BME280;39827;49.652;18.770;2023-02-10T11:50:46;98137.41;;;11.63;30.99
53916;BME280;39827;49.652;18.770;2023-02-10T11:53:23;98138.94;;;10.96;32.06
53916;BME280;39827;49.652;18.770;2023-02-10T11:56:03;98149.72;;;10.43;32.15
53916;BME280;39827;49.652;18.770;2023-02-10T12:12:40;98158.00;;;7.53;37.69
53916;BME280;39827;49.652;18.770;2023-02-10T12:18:22;98150.53;;;7.21;39.07
53916;BME280;39827;49.652;18.770;2023-02-10T12:23:54;98146.53;;;6.97;39.28
53916;BME280;39827;49.652;18.770;2023-02-10T12:26:24;98148.19;;;7.04;39.57
53916;BME280;39827;49.652;18.770;2023-02-10T12:34:38;98130.69;;;6.61;41.23
53916;BME280;39827;49.652;18.770;2023-02-10T12:37:27;98133.91;;;6.35;41.85
53916;BME280;39827;49.652;18.770;2023-02-10T12:50:45;98135.13;;;5.58;43.24
53916;BME280;39827;49.652;18.770;2023-02-10T12:55:44;98141.38;;;6.09;41.32
53916;BME280;39827;49.652;18.770;2023-02-10T12:58:20;98128.41;;;6.30;41.69
53916;BME280;39827;49.652;18.770;2023-02-10T13:00:51;98134.56;;;7.78;39.74
53916;BME280;39827;49.652;18.770;2023-02-10T13:03:34;98128.53;;;7.36;41.64
53916;BME280;39827;49.652;18.770;2023-02-10T13:12:22;98141.97;;;6.27;43.40
53916;BME280;39827;49.652;18.770;2023-02-10T13:14:58;98137.72;;;6.32;42.95
53916;BME280;39827;49.652;18.770;2023-02-10T13:17:25;98148.19;;;6.47;41.39
53916;BME280;39827;49.652;18.770;2023-02-10T13:20:04;98148.00;;;6.27;43.14
53916;BME280;39827;49.652;18.770;2023-02-10T13:22:45;98140.56;;;6.09;44.26
53916;BME280;39827;49.652;18.770;2023-02-10T13:25:19;98154.84;;;5.69;43.76
53916;BME280;39827;49.652;18.770;2023-02-10T13:28:12;98159.31;;;5.69;44.87
53916;BME280;39827;49.652;18.770;2023-02-10T13:35:50;98145.91;;;6.00;45.32
53916;BME280;39827;49.652;18.770;2023-02-10T13:38:20;98166.34;;;6.64;42.88
53916;BME280;39827;49.652;18.770;2023-02-10T13:40:48;98164.69;;;6.56;43.21
53916;BME280;39827;49.652;18.770;2023-02-10T13:43:30;98145.44;;;6.12;43.84
53916;BME280;39827;49.652;18.770;2023-02-10T13:45:56;98168.09;;;6.13;43.50
53916;BME280;39827;49.652;18.770;2023-02-10T13:48:29;98157.75;;;5.90;44.07
53916;BME280;39827;49.652;18.770;2023-02-10T13:50:58;98158.91;;;5.20;46.64
53916;BME280;39827;49.652;18.770;2023-02-10T13:53:38;98165.44;;;5.39;46.14
53916;BME280;39827;49.652;18.770;2023-02-10T14:01:36;98177.81;;;5.45;43.33
53916;BME280;39827;49.652;18.770;2023-02-10T14:04:04;98173.75;;;5.58;44.04
53916;BME280;39827;49.652;18.770;2023-02-10T14:06:41;98174.09;;;5.09;44.72
53916;BME280;39827;49.652;18.770;2023-02-10T14:09:20;98166.53;;;4.38;46.46
53916;BME280;39827;49.652;18.770;2023-02-10T14:11:47;98177.28;;;4.20;47.11
53916;BME280;39827;49.652;18.770;2023-02-10T14:14:34;98174.03;;;3.86;47.55
53916;BME280;39827;49.652;18.770;2023-02-10T14:17:19;98174.81;;;3.95;47.83
53916;BME280;39827;49.652;18.770;2023-02-10T14:19:47;98173.06;;;3.87;48.56
53916;BME280;39827;49.652;18.770;2023-02-10T14:22:33;98176.97;;;3.91;48.45
53916;BME280;39827;49.652;18.770;2023-02-10T14:25:03;98179.00;;;3.81;48.91
53916;BME280;39827;49.652;18.770;2023-02-10T14:27:30;98169.19;;;3.74;48.52
53916;BME280;39827;49.652;18.770;2023-02-10T14:30:00;98169.91;;;3.60;49.01
53916;BME280;39827;49.652;18.770;2023-02-10T14:32:29;98178.91;;;3.65;48.48
53916;BME280;39827;49.652;18.770;2023-02-10T14:35:00;98176.56;;;3.71;48.68
53916;BME280;39827;49.652;18.770;2023-02-10T14:37:27;98176.44;;;3.64;48.78
53916;BME280;39827;49.652;18.770;2023-02-10T14:39:58;98182.91;;;3.45;50.02
53916;BME280;39827;49.652;18.770;2023-02-10T14:42:26;98185.09;;;3.24;49.85
53916;BME280;39827;49.652;18.770;2023-02-10T14:44:54;98185.25;;;3.23;50.40
53916;BME280;39827;49.652;18.770;2023-02-10T14:47:24;98179.44;;;2.79;50.69